AAL451 KMEM-KCLT
Flight info
| Callsign | AAL451 |
|---|---|
| Flight time | N/A |
| Altitude | 37000 |
| Route | GOETZ7 DIYAB SYI TAZZA FILPZ4 |
| Aircraft | B738/M-SDE2E3FGHIRWXY/LB1 |
Departure
| Time | 2026-05-07 02:10 |
|---|---|
| Airport | Memphis International Airport (KMEM) |
Arrival
| Time | N/A |
|---|---|
| Airport | Charlotte Douglas International Airport (KCLT) |
| Time | Latitude | Longitude | Altitude | Speed | Heading |
|---|---|---|---|---|---|
| 2026-05-07 01:31 | 35.04077 | -89.98287 | 308 ft | 0 kts | 295° |
| 2026-05-07 01:52 | 35.04073 | -89.98278 | 308 ft | 4 kts | 289° |
| 2026-05-07 01:53 | 35.04071 | -89.98249 | 309 ft | 4 kts | 243° |
| 2026-05-07 01:53 | 35.04083 | -89.98227 | 308 ft | 0 kts | 231° |
| 2026-05-07 01:58 | 35.04083 | -89.98228 | 308 ft | 1 kts | 228° |
| 2026-05-07 01:58 | 35.04055 | -89.98250 | 308 ft | 10 kts | 212° |
| 2026-05-07 01:59 | 35.03974 | -89.98313 | 307 ft | 15 kts | 222° |
| 2026-05-07 01:59 | 35.03959 | -89.98314 | 309 ft | 3 kts | 152° |
| 2026-05-07 01:59 | 35.03922 | -89.98279 | 309 ft | 10 kts | 163° |
| 2026-05-07 01:59 | 35.03844 | -89.98272 | 310 ft | 9 kts | 179° |
| 2026-05-07 02:00 | 35.03797 | -89.98229 | 312 ft | 9 kts | 109° |
| 2026-05-07 02:00 | 35.03793 | -89.98157 | 312 ft | 10 kts | 90° |
| 2026-05-07 02:00 | 35.03795 | -89.98051 | 313 ft | 15 kts | 89° |
| 2026-05-07 02:00 | 35.03796 | -89.97924 | 315 ft | 15 kts | 89° |
| 2026-05-07 02:01 | 35.03768 | -89.97835 | 316 ft | 12 kts | 162° |
| 2026-05-07 02:01 | 35.03684 | -89.97832 | 316 ft | 13 kts | 179° |
| 2026-05-07 02:01 | 35.03567 | -89.97829 | 318 ft | 20 kts | 179° |
| 2026-05-07 02:01 | 35.03400 | -89.97826 | 322 ft | 30 kts | 179° |
| 2026-05-07 02:02 | 35.03196 | -89.97822 | 327 ft | 28 kts | 179° |
| 2026-05-07 02:02 | 35.03005 | -89.97817 | 334 ft | 27 kts | 179° |
| 2026-05-07 02:02 | 35.02824 | -89.97813 | 347 ft | 25 kts | 179° |
| 2026-05-07 02:02 | 35.02656 | -89.97809 | 353 ft | 23 kts | 179° |
| 2026-05-07 02:03 | 35.02557 | -89.97804 | 353 ft | 0 kts | 159° |
| 2026-05-07 02:03 | 35.02533 | -89.97799 | 354 ft | 10 kts | 183° |
| 2026-05-07 02:03 | 35.02444 | -89.97799 | 353 ft | 11 kts | 162° |
| 2026-05-07 02:03 | 35.02419 | -89.97769 | 353 ft | 0 kts | 114° |
| 2026-05-07 02:04 | 35.02415 | -89.97748 | 353 ft | 6 kts | 97° |
| 2026-05-07 02:04 | 35.02415 | -89.97683 | 356 ft | 0 kts | 89° |
| 2026-05-07 02:04 | 35.02415 | -89.97680 | 351 ft | 0 kts | 89° |
| 2026-05-07 02:07 | 35.02415 | -89.97675 | 351 ft | 0 kts | 89° |
| 2026-05-07 02:08 | 35.02415 | -89.97674 | 351 ft | 1 kts | 89° |
| 2026-05-07 02:08 | 35.02415 | -89.97646 | 352 ft | 6 kts | 89° |
| 2026-05-07 02:08 | 35.02417 | -89.97581 | 352 ft | 7 kts | 84° |
| 2026-05-07 02:08 | 35.02443 | -89.97557 | 354 ft | 0 kts | 3° |
| 2026-05-07 02:09 | 35.02444 | -89.97557 | 354 ft | 0 kts | 1° |
| 2026-05-07 02:09 | 35.02445 | -89.97557 | 354 ft | 0 kts | 1° |
| 2026-05-07 02:09 | 35.02451 | -89.97557 | 355 ft | 4 kts | 1° |
| 2026-05-07 02:10 | 35.02662 | -89.97559 | 352 ft | 72 kts | 359° |
| 2026-05-07 02:10 | 35.03453 | -89.97577 | 321 ft | 153 kts | 359° |
| 2026-05-07 02:10 | 35.04664 | -89.97607 | 847 ft | 178 kts | 0° |
| 2026-05-07 02:10 | 35.05774 | -89.97656 | 2125 ft | 166 kts | 2° |
| 2026-05-07 02:11 | 35.06955 | -89.97669 | 3028 ft | 177 kts | 9° |
| 2026-05-07 02:11 | 35.08203 | -89.97077 | 3319 ft | 206 kts | 32° |
| 2026-05-07 02:11 | 35.09482 | -89.96064 | 3641 ft | 228 kts | 33° |
| 2026-05-07 02:11 | 35.10880 | -89.94960 | 4034 ft | 252 kts | 34° |
| 2026-05-07 02:12 | 35.12206 | -89.93601 | 4677 ft | 268 kts | 44° |
| 2026-05-07 02:12 | 35.13253 | -89.91601 | 5373 ft | 283 kts | 64° |
| 2026-05-07 02:12 | 35.14090 | -89.89415 | 6051 ft | 294 kts | 64° |
| 2026-05-07 02:12 | 35.14693 | -89.86959 | 6526 ft | 307 kts | 89° |
| 2026-05-07 02:13 | 35.14487 | -89.84366 | 7185 ft | 306 kts | 101° |
| 2026-05-07 02:13 | 35.14137 | -89.81784 | 7815 ft | 312 kts | 96° |
| 2026-05-07 02:13 | 35.14471 | -89.79146 | 8350 ft | 318 kts | 68° |
| 2026-05-07 02:13 | 35.15298 | -89.76634 | 9028 ft | 321 kts | 71° |
| 2026-05-07 02:14 | 35.15745 | -89.73930 | 9582 ft | 327 kts | 85° |
| 2026-05-07 02:14 | 35.15973 | -89.71151 | 10196 ft | 332 kts | 84° |
| 2026-05-07 02:14 | 35.16320 | -89.68288 | 10401 ft | 351 kts | 80° |
| 2026-05-07 02:14 | 35.16854 | -89.65329 | 10712 ft | 363 kts | 76° |
| 2026-05-07 02:15 | 35.17462 | -89.62309 | 11192 ft | 367 kts | 76° |
| 2026-05-07 02:15 | 35.18056 | -89.59244 | 11676 ft | 372 kts | 77° |
| 2026-05-07 02:15 | 35.18610 | -89.56138 | 12117 ft | 377 kts | 79° |
| 2026-05-07 02:15 | 35.19140 | -89.52968 | 12591 ft | 382 kts | 79° |
| 2026-05-07 02:16 | 35.19665 | -89.49766 | 13096 ft | 385 kts | 79° |
| 2026-05-07 02:16 | 35.20124 | -89.46582 | 13567 ft | 389 kts | 83° |
| 2026-05-07 02:16 | 35.20454 | -89.43266 | 13989 ft | 394 kts | 86° |
| 2026-05-07 02:16 | 35.20665 | -89.39897 | 14398 ft | 398 kts | 89° |
| 2026-05-07 02:17 | 35.20791 | -89.36503 | 14820 ft | 402 kts | 90° |
| 2026-05-07 02:17 | 35.20898 | -89.33066 | 15209 ft | 407 kts | 90° |
| 2026-05-07 02:17 | 35.21061 | -89.29595 | 15614 ft | 412 kts | 88° |
| 2026-05-07 02:17 | 35.21279 | -89.26085 | 16013 ft | 417 kts | 88° |
| 2026-05-07 02:18 | 35.21529 | -89.22535 | 16388 ft | 421 kts | 86° |
| 2026-05-07 02:18 | 35.22006 | -89.18962 | 16741 ft | 428 kts | 76° |
| 2026-05-07 02:18 | 35.23025 | -89.15527 | 17125 ft | 434 kts | 64° |
| 2026-05-07 02:18 | 35.24283 | -89.12149 | 17754 ft | 439 kts | 64° |
| 2026-05-07 02:19 | 35.25241 | -89.08596 | 18301 ft | 446 kts | 82° |
| 2026-05-07 02:19 | 35.25556 | -89.04814 | 18880 ft | 446 kts | 90° |
| 2026-05-07 02:19 | 35.25702 | -89.01011 | 19483 ft | 448 kts | 90° |
| 2026-05-07 02:19 | 35.25899 | -88.97188 | 20028 ft | 454 kts | 88° |
| 2026-05-07 02:20 | 35.26290 | -88.93332 | 20558 ft | 460 kts | 82° |
| 2026-05-07 02:20 | 35.26855 | -88.89472 | 21128 ft | 463 kts | 80° |
| 2026-05-07 02:20 | 35.27477 | -88.85588 | 21688 ft | 466 kts | 80° |
| 2026-05-07 02:20 | 35.28092 | -88.81672 | 22218 ft | 470 kts | 81° |
| 2026-05-07 02:21 | 35.28675 | -88.77741 | 22732 ft | 474 kts | 81° |
| 2026-05-07 02:21 | 35.29231 | -88.73733 | 23253 ft | 478 kts | 82° |
| 2026-05-07 02:21 | 35.29764 | -88.69690 | 23737 ft | 482 kts | 82° |
| 2026-05-07 02:21 | 35.30289 | -88.65560 | 24166 ft | 485 kts | 83° |
| 2026-05-07 02:22 | 35.30794 | -88.61523 | 24583 ft | 488 kts | 83° |
| 2026-05-07 02:22 | 35.31302 | -88.57430 | 25013 ft | 491 kts | 83° |
| 2026-05-07 02:22 | 35.31820 | -88.53264 | 25435 ft | 494 kts | 83° |
| 2026-05-07 02:22 | 35.32339 | -88.49088 | 25839 ft | 498 kts | 83° |
| 2026-05-07 02:23 | 35.32862 | -88.44882 | 26239 ft | 501 kts | 84° |
| 2026-05-07 02:23 | 35.33389 | -88.40647 | 26632 ft | 504 kts | 84° |
| 2026-05-07 02:23 | 35.33917 | -88.36396 | 27017 ft | 507 kts | 84° |
| 2026-05-07 02:23 | 35.34447 | -88.32118 | 27390 ft | 510 kts | 84° |
| 2026-05-07 02:24 | 35.34980 | -88.27801 | 27763 ft | 513 kts | 84° |
| 2026-05-07 02:24 | 35.35515 | -88.23463 | 28126 ft | 516 kts | 84° |
| 2026-05-07 02:24 | 35.36049 | -88.19106 | 28487 ft | 519 kts | 84° |
| 2026-05-07 02:24 | 35.36586 | -88.14716 | 28841 ft | 522 kts | 84° |
| 2026-05-07 02:25 | 35.37125 | -88.10296 | 29201 ft | 525 kts | 84° |
| 2026-05-07 02:25 | 35.37663 | -88.05874 | 29545 ft | 528 kts | 84° |
| 2026-05-07 02:25 | 35.38205 | -88.01393 | 29866 ft | 531 kts | 84° |
| 2026-05-07 02:25 | 35.38746 | -87.96913 | 30162 ft | 535 kts | 84° |
| 2026-05-07 02:26 | 35.39292 | -87.92382 | 30426 ft | 538 kts | 84° |
| 2026-05-07 02:26 | 35.39836 | -87.87853 | 30685 ft | 540 kts | 84° |
| 2026-05-07 02:26 | 35.40385 | -87.83261 | 30942 ft | 543 kts | 85° |
| 2026-05-07 02:26 | 35.40932 | -87.78672 | 31181 ft | 546 kts | 84° |
| 2026-05-07 02:27 | 35.41481 | -87.74054 | 31414 ft | 549 kts | 85° |
| 2026-05-07 02:27 | 35.42033 | -87.69397 | 31647 ft | 552 kts | 85° |
| 2026-05-07 02:27 | 35.42591 | -87.64675 | 31902 ft | 555 kts | 85° |
| 2026-05-07 02:27 | 35.43137 | -87.60033 | 32123 ft | 557 kts | 85° |
| 2026-05-07 02:28 | 35.43690 | -87.55317 | 32345 ft | 560 kts | 85° |
| 2026-05-07 02:28 | 35.44243 | -87.50588 | 32549 ft | 563 kts | 85° |
| 2026-05-07 02:28 | 35.44795 | -87.45844 | 32820 ft | 563 kts | 85° |
| 2026-05-07 02:28 | 35.45349 | -87.41081 | 33178 ft | 562 kts | 85° |
| 2026-05-07 02:29 | 35.45898 | -87.36341 | 33536 ft | 561 kts | 85° |
| 2026-05-07 02:29 | 35.46446 | -87.31585 | 33806 ft | 562 kts | 85° |
| 2026-05-07 02:29 | 35.46993 | -87.26824 | 33980 ft | 566 kts | 85° |
| 2026-05-07 02:29 | 35.47540 | -87.22030 | 34150 ft | 568 kts | 85° |
| 2026-05-07 02:30 | 35.48084 | -87.17250 | 34427 ft | 567 kts | 85° |
| 2026-05-07 02:30 | 35.48629 | -87.12459 | 34768 ft | 564 kts | 85° |
| 2026-05-07 02:30 | 35.49169 | -87.07695 | 35091 ft | 563 kts | 85° |
| 2026-05-07 02:30 | 35.49705 | -87.02943 | 35319 ft | 563 kts | 85° |
| 2026-05-07 02:31 | 35.50240 | -86.98170 | 35468 ft | 566 kts | 85° |
| 2026-05-07 02:31 | 35.50776 | -86.93376 | 35609 ft | 568 kts | 85° |
| 2026-05-07 02:31 | 35.51313 | -86.88560 | 35865 ft | 568 kts | 85° |
| 2026-05-07 02:31 | 35.51841 | -86.83811 | 36198 ft | 565 kts | 84° |
| 2026-05-07 02:32 | 35.52371 | -86.79032 | 36512 ft | 563 kts | 84° |
| 2026-05-07 02:32 | 35.52897 | -86.74268 | 36720 ft | 564 kts | 84° |
| 2026-05-07 02:32 | 35.53950 | -86.64660 | 36908 ft | 566 kts | 84° |
| 2026-05-07 02:33 | 35.54470 | -86.59891 | 37034 ft | 564 kts | 84° |
| 2026-05-07 02:33 | 35.54991 | -86.55102 | 37044 ft | 567 kts | 84° |
| 2026-05-07 02:33 | 35.56027 | -86.45519 | 37032 ft | 568 kts | 84° |
| 2026-05-07 02:34 | 35.57148 | -86.35878 | 36996 ft | 570 kts | 82° |
| 2026-05-07 02:34 | 35.58559 | -86.26305 | 37023 ft | 569 kts | 79° |
| 2026-05-07 02:35 | 35.60127 | -86.16766 | 37038 ft | 569 kts | 79° |
| 2026-05-07 02:35 | 35.61606 | -86.07212 | 37006 ft | 569 kts | 81° |
| 2026-05-07 02:36 | 35.62992 | -85.97646 | 37022 ft | 568 kts | 81° |
| 2026-05-07 02:36 | 35.64350 | -85.88058 | 37006 ft | 568 kts | 81° |
| 2026-05-07 02:37 | 35.65710 | -85.78481 | 37025 ft | 567 kts | 81° |
| 2026-05-07 02:37 | 35.67066 | -85.68937 | 37018 ft | 567 kts | 81° |
| 2026-05-07 02:38 | 35.68419 | -85.59380 | 37014 ft | 567 kts | 81° |
| 2026-05-07 02:38 | 35.69759 | -85.49843 | 37016 ft | 566 kts | 81° |
| 2026-05-07 02:39 | 35.71088 | -85.40317 | 37007 ft | 566 kts | 81° |
| 2026-05-07 02:39 | 35.72419 | -85.30723 | 37011 ft | 566 kts | 81° |
| 2026-05-07 02:40 | 35.73741 | -85.21138 | 37010 ft | 567 kts | 81° |
| 2026-05-07 02:40 | 35.75043 | -85.11635 | 37002 ft | 567 kts | 81° |
| 2026-05-07 02:41 | 35.76358 | -85.01984 | 36995 ft | 567 kts | 81° |
| 2026-05-07 02:41 | 35.77645 | -84.92475 | 36996 ft | 567 kts | 81° |
| 2026-05-07 02:42 | 35.78937 | -84.82872 | 37009 ft | 568 kts | 81° |
| 2026-05-07 02:42 | 35.80224 | -84.73251 | 36990 ft | 570 kts | 82° |
| 2026-05-07 02:43 | 35.81500 | -84.63616 | 36988 ft | 570 kts | 82° |
| 2026-05-07 02:43 | 35.82530 | -84.53916 | 37018 ft | 570 kts | 86° |
| 2026-05-07 02:44 | 35.83184 | -84.44192 | 36993 ft | 569 kts | 89° |
| 2026-05-07 02:44 | 35.83627 | -84.34449 | 36984 ft | 569 kts | 89° |
| 2026-05-07 02:45 | 35.84079 | -84.26296 | 36971 ft | 570 kts | 88° |
| 2026-05-07 02:45 | 35.84741 | -84.16544 | 36966 ft | 570 kts | 87° |
| 2026-05-07 02:46 | 35.85435 | -84.06824 | 36472 ft | 569 kts | 87° |
| 2026-05-07 02:46 | 35.85773 | -84.01982 | 36090 ft | 564 kts | 87° |
| 2026-05-07 02:46 | 35.86098 | -83.97219 | 35909 ft | 555 kts | 87° |
| 2026-05-07 02:47 | 35.86417 | -83.92453 | 35225 ft | 559 kts | 88° |
| 2026-05-07 02:47 | 35.86732 | -83.87692 | 35040 ft | 550 kts | 88° |
| 2026-05-07 02:47 | 35.87039 | -83.83027 | 34577 ft | 549 kts | 88° |
| 2026-05-07 02:47 | 35.87345 | -83.78309 | 34104 ft | 549 kts | 88° |
| 2026-05-07 02:48 | 35.87648 | -83.73665 | 33819 ft | 543 kts | 88° |
| 2026-05-07 02:48 | 35.87951 | -83.68973 | 33235 ft | 544 kts | 88° |
| 2026-05-07 02:48 | 35.88248 | -83.64384 | 33035 ft | 535 kts | 88° |
| 2026-05-07 02:48 | 35.88536 | -83.59873 | 32424 ft | 537 kts | 88° |
| 2026-05-07 02:49 | 35.88827 | -83.55327 | 32259 ft | 528 kts | 88° |
| 2026-05-07 02:49 | 35.89112 | -83.50809 | 31695 ft | 524 kts | 88° |
| 2026-05-07 02:49 | 35.89316 | -83.46404 | 31421 ft | 507 kts | 96° |
| 2026-05-07 02:49 | 35.88654 | -83.42277 | 31026 ft | 475 kts | 120° |
| 2026-05-07 02:50 | 35.87502 | -83.38548 | 30830 ft | 461 kts | 120° |
| 2026-05-07 02:50 | 35.86457 | -83.34880 | 30514 ft | 457 kts | 115° |
| 2026-05-07 02:50 | 35.85648 | -83.31103 | 30206 ft | 456 kts | 111° |
| 2026-05-07 02:50 | 35.84937 | -83.27286 | 29801 ft | 456 kts | 110° |
| 2026-05-07 02:51 | 35.84203 | -83.23482 | 29404 ft | 452 kts | 111° |
| 2026-05-07 02:51 | 35.83412 | -83.19754 | 29002 ft | 449 kts | 113° |
| 2026-05-07 02:51 | 35.82575 | -83.16066 | 28638 ft | 445 kts | 113° |
| 2026-05-07 02:51 | 35.81740 | -83.12416 | 28335 ft | 441 kts | 113° |
| 2026-05-07 02:52 | 35.80919 | -83.08771 | 27981 ft | 438 kts | 112° |
| 2026-05-07 02:52 | 35.80113 | -83.05156 | 27577 ft | 437 kts | 112° |
| 2026-05-07 02:52 | 35.79312 | -83.01553 | 27227 ft | 435 kts | 112° |
| 2026-05-07 02:52 | 35.78515 | -82.97964 | 26856 ft | 434 kts | 111° |
| 2026-05-07 02:53 | 35.77717 | -82.94377 | 26486 ft | 434 kts | 111° |
| 2026-05-07 02:53 | 35.76917 | -82.90792 | 26106 ft | 433 kts | 111° |
| 2026-05-07 02:53 | 35.76119 | -82.87226 | 25707 ft | 432 kts | 111° |
| 2026-05-07 02:53 | 35.75321 | -82.83665 | 25376 ft | 430 kts | 111° |
| 2026-05-07 02:54 | 35.74524 | -82.80117 | 24990 ft | 430 kts | 111° |
| 2026-05-07 02:54 | 35.73727 | -82.76570 | 24628 ft | 429 kts | 111° |
| 2026-05-07 02:54 | 35.72935 | -82.73051 | 24311 ft | 427 kts | 110° |
| 2026-05-07 02:54 | 35.72139 | -82.69522 | 23927 ft | 428 kts | 110° |
| 2026-05-07 02:55 | 35.71340 | -82.66002 | 23535 ft | 429 kts | 110° |
| 2026-05-07 02:55 | 35.70529 | -82.62446 | 23030 ft | 432 kts | 110° |
| 2026-05-07 02:55 | 35.69716 | -82.58887 | 22604 ft | 431 kts | 110° |
| 2026-05-07 02:55 | 35.68907 | -82.55347 | 22223 ft | 427 kts | 110° |
| 2026-05-07 02:56 | 35.68108 | -82.51844 | 21732 ft | 421 kts | 110° |
| 2026-05-07 02:56 | 35.67323 | -82.48406 | 21360 ft | 414 kts | 110° |
| 2026-05-07 02:56 | 35.66548 | -82.45021 | 21006 ft | 413 kts | 110° |
| 2026-05-07 02:56 | 35.65771 | -82.41641 | 20583 ft | 417 kts | 110° |
| 2026-05-07 02:57 | 35.64975 | -82.38195 | 20148 ft | 420 kts | 109° |
| 2026-05-07 02:57 | 35.64181 | -82.34733 | 19713 ft | 412 kts | 109° |
| 2026-05-07 02:57 | 35.63408 | -82.31371 | 19325 ft | 404 kts | 110° |
| 2026-05-07 02:57 | 35.62658 | -82.28120 | 18989 ft | 400 kts | 110° |
| 2026-05-07 02:58 | 35.61881 | -82.24774 | 18496 ft | 404 kts | 110° |
| 2026-05-07 02:58 | 35.61105 | -82.21438 | 17960 ft | 407 kts | 109° |
| 2026-05-07 02:58 | 35.60341 | -82.18151 | 17595 ft | 405 kts | 109° |
| 2026-05-07 02:58 | 35.59564 | -82.14801 | 17092 ft | 407 kts | 109° |
| 2026-05-07 02:59 | 35.58793 | -82.11481 | 16619 ft | 401 kts | 109° |
| 2026-05-07 02:59 | 35.58036 | -82.08222 | 16212 ft | 392 kts | 109° |
| 2026-05-07 02:59 | 35.57302 | -82.05027 | 15785 ft | 384 kts | 108° |
| 2026-05-07 02:59 | 35.56672 | -82.01893 | 15534 ft | 371 kts | 105° |
| 2026-05-07 03:00 | 35.56140 | -81.98851 | 15368 ft | 359 kts | 105° |
| 2026-05-07 03:00 | 35.55633 | -81.95858 | 15097 ft | 358 kts | 105° |
| 2026-05-07 03:00 | 35.55120 | -81.92885 | 14880 ft | 356 kts | 105° |
| 2026-05-07 03:00 | 35.54597 | -81.89929 | 14633 ft | 350 kts | 105° |
| 2026-05-07 03:01 | 35.54085 | -81.87077 | 14381 ft | 342 kts | 106° |
| 2026-05-07 03:01 | 35.53573 | -81.84265 | 14143 ft | 334 kts | 106° |
| 2026-05-07 03:01 | 35.53067 | -81.81501 | 13935 ft | 333 kts | 106° |
| 2026-05-07 03:01 | 35.52551 | -81.78701 | 13696 ft | 337 kts | 106° |
| 2026-05-07 03:02 | 35.52033 | -81.75885 | 13437 ft | 338 kts | 106° |
| 2026-05-07 03:02 | 35.51517 | -81.73077 | 13175 ft | 339 kts | 106° |
| 2026-05-07 03:02 | 35.50995 | -81.70253 | 12921 ft | 337 kts | 106° |
| 2026-05-07 03:02 | 35.50477 | -81.67472 | 12663 ft | 333 kts | 106° |
| 2026-05-07 03:03 | 35.49997 | -81.64888 | 12415 ft | 330 kts | 106° |
| 2026-05-07 03:03 | 35.49491 | -81.62155 | 12195 ft | 325 kts | 106° |
| 2026-05-07 03:03 | 35.48993 | -81.59465 | 11984 ft | 323 kts | 106° |
| 2026-05-07 03:03 | 35.48504 | -81.56794 | 11975 ft | 318 kts | 105° |
| 2026-05-07 03:04 | 35.48384 | -81.54113 | 11522 ft | 331 kts | 75° |
| 2026-05-07 03:04 | 35.49390 | -81.51621 | 11397 ft | 321 kts | 56° |
| 2026-05-07 03:04 | 35.50482 | -81.49254 | 11102 ft | 320 kts | 71° |
| 2026-05-07 03:04 | 35.50931 | -81.46590 | 10811 ft | 317 kts | 88° |
| 2026-05-07 03:05 | 35.50936 | -81.43899 | 10596 ft | 313 kts | 95° |
| 2026-05-07 03:05 | 35.50877 | -81.41230 | 10306 ft | 313 kts | 91° |
| 2026-05-07 03:05 | 35.51003 | -81.38560 | 10039 ft | 313 kts | 86° |
| 2026-05-07 03:05 | 35.51254 | -81.35928 | 9792 ft | 312 kts | 84° |
| 2026-05-07 03:06 | 35.51534 | -81.33299 | 9511 ft | 310 kts | 84° |
| 2026-05-07 03:06 | 35.51807 | -81.30692 | 9236 ft | 308 kts | 84° |
| 2026-05-07 03:06 | 35.52069 | -81.28100 | 9054 ft | 303 kts | 85° |
| 2026-05-07 03:06 | 35.52317 | -81.25568 | 8986 ft | 294 kts | 85° |
| 2026-05-07 03:07 | 35.52554 | -81.23108 | 8810 ft | 284 kts | 85° |
| 2026-05-07 03:07 | 35.52782 | -81.20718 | 8631 ft | 279 kts | 85° |
| 2026-05-07 03:07 | 35.52997 | -81.18365 | 8594 ft | 269 kts | 86° |
| 2026-05-07 03:07 | 35.53184 | -81.16095 | 8341 ft | 268 kts | 87° |
| 2026-05-07 03:08 | 35.53361 | -81.13796 | 8013 ft | 271 kts | 87° |
| 2026-05-07 03:08 | 35.53538 | -81.11521 | 7829 ft | 268 kts | 87° |
| 2026-05-07 03:08 | 35.53705 | -81.09253 | 7625 ft | 264 kts | 89° |
| 2026-05-07 03:08 | 35.53659 | -81.07031 | 7334 ft | 264 kts | 102° |
| 2026-05-07 03:09 | 35.53164 | -81.04868 | 7096 ft | 255 kts | 118° |
| 2026-05-07 03:09 | 35.52542 | -81.02925 | 7153 ft | 256 kts | 115° |
| 2026-05-07 03:09 | 35.51978 | -81.00826 | 7034 ft | 261 kts | 112° |
| 2026-05-07 03:09 | 35.51436 | -80.98681 | 7045 ft | 257 kts | 112° |
| 2026-05-07 03:10 | 35.50915 | -80.96586 | 7008 ft | 255 kts | 112° |
| 2026-05-07 03:10 | 35.50411 | -80.94549 | 7015 ft | 251 kts | 112° |
| 2026-05-07 03:10 | 35.49907 | -80.92500 | 6993 ft | 251 kts | 112° |
| 2026-05-07 03:10 | 35.49389 | -80.90420 | 6866 ft | 253 kts | 113° |
| 2026-05-07 03:11 | 35.48692 | -80.88484 | 6573 ft | 249 kts | 131° |
| 2026-05-07 03:11 | 35.47397 | -80.87226 | 6216 ft | 231 kts | 172° |
| 2026-05-07 03:11 | 35.45919 | -80.87319 | 6055 ft | 206 kts | 212° |
| 2026-05-07 03:11 | 35.44975 | -80.88523 | 5844 ft | 198 kts | 243° |
| 2026-05-07 03:12 | 35.44318 | -80.90003 | 5533 ft | 199 kts | 232° |
| 2026-05-07 03:12 | 35.43219 | -80.91082 | 5285 ft | 201 kts | 215° |
| 2026-05-07 03:12 | 35.42114 | -80.92039 | 5092 ft | 196 kts | 227° |
| 2026-05-07 03:12 | 35.41468 | -80.93442 | 5020 ft | 189 kts | 255° |
| 2026-05-07 03:13 | 35.41383 | -80.95030 | 5020 ft | 192 kts | 265° |
| 2026-05-07 03:13 | 35.41375 | -80.96688 | 5021 ft | 196 kts | 264° |
| 2026-05-07 03:13 | 35.41306 | -80.98375 | 5033 ft | 198 kts | 262° |
| 2026-05-07 03:13 | 35.41216 | -81.00062 | 5035 ft | 199 kts | 262° |
| 2026-05-07 03:14 | 35.41122 | -81.01768 | 5032 ft | 198 kts | 262° |
| 2026-05-07 03:14 | 35.41032 | -81.03438 | 5032 ft | 197 kts | 262° |
| 2026-05-07 03:14 | 35.41059 | -81.06783 | 5014 ft | 201 kts | 276° |
| 2026-05-07 03:15 | 35.41549 | -81.08401 | 5036 ft | 207 kts | 296° |
| 2026-05-07 03:15 | 35.42640 | -81.09623 | 5064 ft | 221 kts | 324° |
| 2026-05-07 03:15 | 35.44183 | -81.10171 | 5056 ft | 242 kts | 348° |
| 2026-05-07 03:15 | 35.45870 | -81.10159 | 5052 ft | 241 kts | 355° |
| 2026-05-07 03:16 | 35.47551 | -81.10100 | 4778 ft | 243 kts | 354° |
| 2026-05-07 03:16 | 35.49211 | -81.10087 | 4753 ft | 239 kts | 352° |
| 2026-05-07 03:16 | 35.50894 | -81.10100 | 4702 ft | 242 kts | 352° |
| 2026-05-07 03:16 | 35.52615 | -81.10124 | 4431 ft | 250 kts | 352° |
| 2026-05-07 03:17 | 35.54347 | -81.10156 | 4186 ft | 249 kts | 352° |
| 2026-05-07 03:17 | 35.56063 | -81.10136 | 4052 ft | 244 kts | 359° |
| 2026-05-07 03:17 | 35.57736 | -81.09768 | 4077 ft | 246 kts | 11° |
| 2026-05-07 03:17 | 35.59211 | -81.08696 | 4007 ft | 251 kts | 50° |
| 2026-05-07 03:18 | 35.59895 | -81.06756 | 4071 ft | 253 kts | 83° |
| 2026-05-07 03:18 | 35.60158 | -81.04576 | 4043 ft | 261 kts | 84° |
| 2026-05-07 03:18 | 35.60439 | -81.02386 | 4031 ft | 257 kts | 83° |
| 2026-05-07 03:18 | 35.60730 | -81.00208 | 3986 ft | 253 kts | 87° |
| 2026-05-07 03:19 | 35.60731 | -80.98101 | 3961 ft | 248 kts | 108° |
| 2026-05-07 03:19 | 35.59913 | -80.96325 | 3981 ft | 229 kts | 149° |
| 2026-05-07 03:19 | 35.58580 | -80.95423 | 4024 ft | 221 kts | 165° |
| 2026-05-07 03:19 | 35.57167 | -80.94639 | 3976 ft | 225 kts | 163° |
| 2026-05-07 03:20 | 35.55743 | -80.93797 | 4016 ft | 227 kts | 162° |
| 2026-05-07 03:20 | 35.54313 | -80.93013 | 3997 ft | 223 kts | 167° |
| 2026-05-07 03:20 | 35.52859 | -80.92420 | 3996 ft | 217 kts | 172° |
| 2026-05-07 03:20 | 35.51406 | -80.91938 | 3980 ft | 215 kts | 174° |
| 2026-05-07 03:21 | 35.49930 | -80.91634 | 3675 ft | 211 kts | 195° |